sensor_id;sensor_type;location;lat;lon;timestamp;temperature;humidity
16863;DHT22;52193;48.216;-1.698;2022-11-20T00:01:25;12.70;99.90
16863;DHT22;52193;48.216;-1.698;2022-11-20T00:03:54;12.80;99.90
16863;DHT22;52193;48.216;-1.698;2022-11-20T00:06:22;12.70;99.90
16863;DHT22;52193;48.216;-1.698;2022-11-20T00:08:49;12.70;99.90
16863;DHT22;52193;48.216;-1.698;2022-11-20T00:11:18;12.80;99.90
16863;DHT22;52193;48.216;-1.698;2022-11-20T00:13:46;12.80;99.90
16863;DHT22;52193;48.216;-1.698;2022-11-20T00:16:15;12.80;99.90
16863;DHT22;52193;48.216;-1.698;2022-11-20T00:18:44;12.90;99.90
16863;DHT22;52193;48.216;-1.698;2022-11-20T00:21:12;12.90;99.90
16863;DHT22;52193;48.216;-1.698;2022-11-20T00:23:39;12.90;99.90
16863;DHT22;52193;48.216;-1.698;2022-11-20T00:26:08;12.90;99.90
16863;DHT22;52193;48.216;-1.698;2022-11-20T00:28:35;12.90;99.90
16863;DHT22;52193;48.216;-1.698;2022-11-20T00:31:03;12.90;99.90
16863;DHT22;52193;48.216;-1.698;2022-11-20T00:33:31;12.90;99.90
16863;DHT22;52193;48.216;-1.698;2022-11-20T00:36:04;12.80;99.90
16863;DHT22;52193;48.216;-1.698;2022-11-20T00:38:32;12.80;99.90
16863;DHT22;52193;48.216;-1.698;2022-11-20T00:41:00;12.80;99.90
16863;DHT22;52193;48.216;-1.698;2022-11-20T00:43:28;12.80;99.90
16863;DHT22;52193;48.216;-1.698;2022-11-20T00:45:58;12.80;99.90
16863;DHT22;52193;48.216;-1.698;2022-11-20T00:48:25;12.60;99.90
16863;DHT22;52193;48.216;-1.698;2022-11-20T00:50:52;12.70;99.90
16863;DHT22;52193;48.216;-1.698;2022-11-20T00:53:21;12.70;99.90
16863;DHT22;52193;48.216;-1.698;2022-11-20T00:55:55;12.70;99.90
16863;DHT22;52193;48.216;-1.698;2022-11-20T00:58:23;12.60;99.90
16863;DHT22;52193;48.216;-1.698;2022-11-20T01:00:50;12.60;99.90
16863;DHT22;52193;48.216;-1.698;2022-11-20T01:03:18;12.60;99.90
16863;DHT22;52193;48.216;-1.698;2022-11-20T01:05:45;12.60;99.90
16863;DHT22;52193;48.216;-1.698;2022-11-20T01:08:12;12.50;99.90
16863;DHT22;52193;48.216;-1.698;2022-11-20T01:10:40;12.50;99.90
16863;DHT22;52193;48.216;-1.698;2022-11-20T01:13:07;12.50;99.90
16863;DHT22;52193;48.216;-1.698;2022-11-20T01:15:51;12.40;99.90
16863;DHT22;52193;48.216;-1.698;2022-11-20T01:18:18;12.40;99.90
16863;DHT22;52193;48.216;-1.698;2022-11-20T01:20:45;12.30;99.90
16863;DHT22;52193;48.216;-1.698;2022-11-20T01:23:12;12.30;99.90
16863;DHT22;52193;48.216;-1.698;2022-11-20T01:25:40;12.30;99.90
16863;DHT22;52193;48.216;-1.698;2022-11-20T01:28:07;12.40;99.90
16863;DHT22;52193;48.216;-1.698;2022-11-20T01:30:34;12.40;99.90
16863;DHT22;52193;48.216;-1.698;2022-11-20T01:33:01;12.40;99.90
16863;DHT22;52193;48.216;-1.698;2022-11-20T01:35:28;12.40;99.90
16863;DHT22;52193;48.216;-1.698;2022-11-20T01:37:55;12.40;99.90
16863;DHT22;52193;48.216;-1.698;2022-11-20T01:40:22;12.40;99.90
16863;DHT22;52193;48.216;-1.698;2022-11-20T01:43:04;12.40;99.90
16863;DHT22;52193;48.216;-1.698;2022-11-20T01:46:00;12.40;99.90
16863;DHT22;52193;48.216;-1.698;2022-11-20T01:48:32;12.30;99.90
16863;DHT22;52193;48.216;-1.698;2022-11-20T01:51:00;12.30;99.90
16863;DHT22;52193;48.216;-1.698;2022-11-20T01:53:34;12.20;99.90
16863;DHT22;52193;48.216;-1.698;2022-11-20T01:56:05;12.20;99.90
16863;DHT22;52193;48.216;-1.698;2022-11-20T01:58:38;12.20;99.90
16863;DHT22;52193;48.216;-1.698;2022-11-20T02:01:06;12.30;99.90
16863;DHT22;52193;48.216;-1.698;2022-11-20T02:03:33;12.20;99.90
16863;DHT22;52193;48.216;-1.698;2022-11-20T02:06:05;12.10;99.90
16863;DHT22;52193;48.216;-1.698;2022-11-20T02:08:35;12.10;99.90
16863;DHT22;52193;48.216;-1.698;2022-11-20T02:11:03;12.20;99.90
16863;DHT22;52193;48.216;-1.698;2022-11-20T02:13:30;12.20;99.90
16863;DHT22;52193;48.216;-1.698;2022-11-20T02:16:15;12.20;99.90
16863;DHT22;52193;48.216;-1.698;2022-11-20T02:18:44;12.20;99.90
16863;DHT22;52193;48.216;-1.698;2022-11-20T02:21:21;12.20;99.90
16863;DHT22;52193;48.216;-1.698;2022-11-20T02:24:10;12.10;99.90
16863;DHT22;52193;48.216;-1.698;2022-11-20T02:26:42;12.10;99.90
16863;DHT22;52193;48.216;-1.698;2022-11-20T02:29:10;12.10;99.90
16863;DHT22;52193;48.216;-1.698;2022-11-20T02:31:40;12.00;99.90
16863;DHT22;52193;48.216;-1.698;2022-11-20T02:34:08;12.00;99.90
16863;DHT22;52193;48.216;-1.698;2022-11-20T02:36:36;12.00;99.90
16863;DHT22;52193;48.216;-1.698;2022-11-20T02:39:05;12.00;99.90
16863;DHT22;52193;48.216;-1.698;2022-11-20T02:41:35;12.00;99.90
16863;DHT22;52193;48.216;-1.698;2022-11-20T02:44:03;12.00;99.90
16863;DHT22;52193;48.216;-1.698;2022-11-20T02:46:30;12.10;99.90
16863;DHT22;52193;48.216;-1.698;2022-11-20T02:48:58;12.00;99.90
16863;DHT22;52193;48.216;-1.698;2022-11-20T02:51:25;12.00;99.90
16863;DHT22;52193;48.216;-1.698;2022-11-20T02:53:52;11.90;99.90
16863;DHT22;52193;48.216;-1.698;2022-11-20T02:56:19;11.90;99.90
16863;DHT22;52193;48.216;-1.698;2022-11-20T02:58:47;12.00;99.90
16863;DHT22;52193;48.216;-1.698;2022-11-20T03:01:14;12.00;99.90
16863;DHT22;52193;48.216;-1.698;2022-11-20T03:03:41;12.00;99.90
16863;DHT22;52193;48.216;-1.698;2022-11-20T03:06:08;11.90;99.90
16863;DHT22;52193;48.216;-1.698;2022-11-20T03:08:35;11.90;99.90
16863;DHT22;52193;48.216;-1.698;2022-11-20T03:11:04;12.00;99.90
16863;DHT22;52193;48.216;-1.698;2022-11-20T03:13:31;12.00;99.90
16863;DHT22;52193;48.216;-1.698;2022-11-20T03:18:35;12.10;99.90
16863;DHT22;52193;48.216;-1.698;2022-11-20T03:21:02;12.10;99.90
16863;DHT22;52193;48.216;-1.698;2022-11-20T03:23:30;12.20;99.90
16863;DHT22;52193;48.216;-1.698;2022-11-20T03:26:11;12.20;99.90
16863;DHT22;52193;48.216;-1.698;2022-11-20T03:28:38;12.10;99.90
16863;DHT22;52193;48.216;-1.698;2022-11-20T03:31:08;12.10;99.90
16863;DHT22;52193;48.216;-1.698;2022-11-20T03:33:36;12.10;99.90
16863;DHT22;52193;48.216;-1.698;2022-11-20T03:36:04;12.20;99.90
16863;DHT22;52193;48.216;-1.698;2022-11-20T03:38:32;12.30;99.90
16863;DHT22;52193;48.216;-1.698;2022-11-20T03:41:00;12.40;99.90
16863;DHT22;52193;48.216;-1.698;2022-11-20T03:43:27;12.40;99.90
16863;DHT22;52193;48.216;-1.698;2022-11-20T03:45:54;12.30;99.90
16863;DHT22;52193;48.216;-1.698;2022-11-20T03:48:22;12.30;99.90
16863;DHT22;52193;48.216;-1.698;2022-11-20T03:50:49;12.30;99.90
16863;DHT22;52193;48.216;-1.698;2022-11-20T03:53:16;12.30;99.90
16863;DHT22;52193;48.216;-1.698;2022-11-20T03:55:43;12.40;99.90
16863;DHT22;52193;48.216;-1.698;2022-11-20T03:58:10;12.40;99.90
16863;DHT22;52193;48.216;-1.698;2022-11-20T04:00:39;12.40;99.90
16863;DHT22;52193;48.216;-1.698;2022-11-20T04:03:06;12.30;99.90
16863;DHT22;52193;48.216;-1.698;2022-11-20T04:05:34;12.20;99.90
16863;DHT22;52193;48.216;-1.698;2022-11-20T04:08:01;12.20;99.90
16863;DHT22;52193;48.216;-1.698;2022-11-20T04:10:28;12.20;99.90
16863;DHT22;52193;48.216;-1.698;2022-11-20T04:12:55;12.20;99.90
16863;DHT22;52193;48.216;-1.698;2022-11-20T04:15:22;12.30;99.90
16863;DHT22;52193;48.216;-1.698;2022-11-20T04:17:49;12.30;99.90
16863;DHT22;52193;48.216;-1.698;2022-11-20T04:20:16;12.30;99.90
16863;DHT22;52193;48.216;-1.698;2022-11-20T04:22:44;12.30;99.90
16863;DHT22;52193;48.216;-1.698;2022-11-20T04:25:11;12.40;99.90
16863;DHT22;52193;48.216;-1.698;2022-11-20T04:27:38;12.40;99.90
16863;DHT22;52193;48.216;-1.698;2022-11-20T04:30:05;12.40;99.90
16863;DHT22;52193;48.216;-1.698;2022-11-20T04:32:32;12.50;99.90
16863;DHT22;52193;48.216;-1.698;2022-11-20T04:34:59;12.50;99.90
16863;DHT22;52193;48.216;-1.698;2022-11-20T04:37:26;12.50;99.90
16863;DHT22;52193;48.216;-1.698;2022-11-20T04:39:55;12.50;99.90
16863;DHT22;52193;48.216;-1.698;2022-11-20T04:42:21;12.50;99.90
16863;DHT22;52193;48.216;-1.698;2022-11-20T04:44:58;12.60;99.90
16863;DHT22;52193;48.216;-1.698;2022-11-20T04:47:25;12.60;99.90
16863;DHT22;52193;48.216;-1.698;2022-11-20T04:49:52;12.60;99.90
16863;DHT22;52193;48.216;-1.698;2022-11-20T04:52:19;12.60;99.90
16863;DHT22;52193;48.216;-1.698;2022-11-20T04:54:45;12.60;99.90
16863;DHT22;52193;48.216;-1.698;2022-11-20T04:57:14;12.60;99.90
16863;DHT22;52193;48.216;-1.698;2022-11-20T04:59:42;12.60;99.90
16863;DHT22;52193;48.216;-1.698;2022-11-20T05:02:09;12.60;99.90
16863;DHT22;52193;48.216;-1.698;2022-11-20T05:04:36;12.60;99.90
16863;DHT22;52193;48.216;-1.698;2022-11-20T05:07:03;12.70;99.90
16863;DHT22;52193;48.216;-1.698;2022-11-20T05:09:30;12.70;99.90
16863;DHT22;52193;48.216;-1.698;2022-11-20T05:11:58;12.60;99.90
16863;DHT22;52193;48.216;-1.698;2022-11-20T05:14:26;12.60;99.90
16863;DHT22;52193;48.216;-1.698;2022-11-20T05:16:53;12.60;99.90
16863;DHT22;52193;48.216;-1.698;2022-11-20T05:19:20;12.60;99.90
16863;DHT22;52193;48.216;-1.698;2022-11-20T05:21:47;12.60;99.90
16863;DHT22;52193;48.216;-1.698;2022-11-20T05:24:14;12.70;99.90
16863;DHT22;52193;48.216;-1.698;2022-11-20T05:26:41;12.80;99.90
16863;DHT22;52193;48.216;-1.698;2022-11-20T05:29:10;12.80;99.90
16863;DHT22;52193;48.216;-1.698;2022-11-20T05:31:39;12.80;99.90
16863;DHT22;52193;48.216;-1.698;2022-11-20T05:34:07;12.80;99.90
16863;DHT22;52193;48.216;-1.698;2022-11-20T05:36:34;12.80;99.90
16863;DHT22;52193;48.216;-1.698;2022-11-20T05:39:01;12.90;99.90
16863;DHT22;52193;48.216;-1.698;2022-11-20T05:41:28;13.00;99.90
16863;DHT22;52193;48.216;-1.698;2022-11-20T05:43:56;12.90;99.90
16863;DHT22;52193;48.216;-1.698;2022-11-20T05:46:24;13.00;99.90
16863;DHT22;52193;48.216;-1.698;2022-11-20T05:48:52;13.00;99.90
16863;DHT22;52193;48.216;-1.698;2022-11-20T05:51:19;13.00;99.90
16863;DHT22;52193;48.216;-1.698;2022-11-20T05:53:46;13.00;99.90
16863;DHT22;52193;48.216;-1.698;2022-11-20T05:56:15;13.00;99.90
16863;DHT22;52193;48.216;-1.698;2022-11-20T05:58:43;12.90;99.90
16863;DHT22;52193;48.216;-1.698;2022-11-20T06:01:12;12.90;99.90
16863;DHT22;52193;48.216;-1.698;2022-11-20T06:03:39;12.90;99.90
16863;DHT22;52193;48.216;-1.698;2022-11-20T06:06:09;12.90;99.90
16863;DHT22;52193;48.216;-1.698;2022-11-20T06:08:36;12.90;99.90
16863;DHT22;52193;48.216;-1.698;2022-11-20T06:11:04;12.90;99.90
16863;DHT22;52193;48.216;-1.698;2022-11-20T06:13:31;13.00;99.90
16863;DHT22;52193;48.216;-1.698;2022-11-20T06:15:58;13.10;99.90
16863;DHT22;52193;48.216;-1.698;2022-11-20T06:18:26;13.10;99.90
16863;DHT22;52193;48.216;-1.698;2022-11-20T06:21:00;13.20;99.90
16863;DHT22;52193;48.216;-1.698;2022-11-20T06:23:30;13.20;99.90
16863;DHT22;52193;48.216;-1.698;2022-11-20T06:25:57;13.30;99.90
16863;DHT22;52193;48.216;-1.698;2022-11-20T06:28:24;13.30;99.90
16863;DHT22;52193;48.216;-1.698;2022-11-20T06:30:51;13.40;99.90
16863;DHT22;52193;48.216;-1.698;2022-11-20T06:33:18;13.40;99.90
16863;DHT22;52193;48.216;-1.698;2022-11-20T06:35:45;13.40;99.90
16863;DHT22;52193;48.216;-1.698;2022-11-20T06:38:12;13.50;99.90
16863;DHT22;52193;48.216;-1.698;2022-11-20T06:40:41;13.40;99.90
16863;DHT22;52193;48.216;-1.698;2022-11-20T06:43:08;13.30;99.90
16863;DHT22;52193;48.216;-1.698;2022-11-20T06:45:35;13.30;99.90
16863;DHT22;52193;48.216;-1.698;2022-11-20T06:48:03;13.40;99.90
16863;DHT22;52193;48.216;-1.698;2022-11-20T06:50:30;13.40;99.90
16863;DHT22;52193;48.216;-1.698;2022-11-20T06:53:00;13.50;99.90
16863;DHT22;52193;48.216;-1.698;2022-11-20T06:55:27;13.50;99.90
16863;DHT22;52193;48.216;-1.698;2022-11-20T06:57:55;13.50;99.90
16863;DHT22;52193;48.216;-1.698;2022-11-20T07:00:22;13.50;99.90
16863;DHT22;52193;48.216;-1.698;2022-11-20T07:02:50;13.50;99.90
16863;DHT22;52193;48.216;-1.698;2022-11-20T07:05:17;13.60;99.90
16863;DHT22;52193;48.216;-1.698;2022-11-20T07:07:44;13.60;99.90
16863;DHT22;52193;48.216;-1.698;2022-11-20T07:10:11;13.50;99.90
16863;DHT22;52193;48.216;-1.698;2022-11-20T07:12:38;13.50;99.90
16863;DHT22;52193;48.216;-1.698;2022-11-20T07:15:07;13.50;99.90
16863;DHT22;52193;48.216;-1.698;2022-11-20T07:17:34;13.60;99.90
16863;DHT22;52193;48.216;-1.698;2022-11-20T07:20:01;13.60;99.90
16863;DHT22;52193;48.216;-1.698;2022-11-20T07:22:29;13.50;99.90
16863;DHT22;52193;48.216;-1.698;2022-11-20T07:24:56;13.50;99.90
16863;DHT22;52193;48.216;-1.698;2022-11-20T07:27:23;13.50;99.90
16863;DHT22;52193;48.216;-1.698;2022-11-20T07:29:49;13.60;99.90
16863;DHT22;52193;48.216;-1.698;2022-11-20T07:32:18;13.50;99.90
16863;DHT22;52193;48.216;-1.698;2022-11-20T07:34:45;13.50;99.90
16863;DHT22;52193;48.216;-1.698;2022-11-20T07:37:12;13.50;99.90
16863;DHT22;52193;48.216;-1.698;2022-11-20T07:39:39;13.40;99.90
16863;DHT22;52193;48.216;-1.698;2022-11-20T07:42:06;13.50;99.90
16863;DHT22;52193;48.216;-1.698;2022-11-20T07:44:33;13.40;99.90
16863;DHT22;52193;48.216;-1.698;2022-11-20T07:47:00;13.50;99.90
16863;DHT22;52193;48.216;-1.698;2022-11-20T07:49:29;13.40;99.90
16863;DHT22;52193;48.216;-1.698;2022-11-20T07:51:56;13.30;99.90
16863;DHT22;52193;48.216;-1.698;2022-11-20T07:54:23;13.40;99.90
16863;DHT22;52193;48.216;-1.698;2022-11-20T07:56:50;13.50;99.90
16863;DHT22;52193;48.216;-1.698;2022-11-20T07:59:17;13.50;99.90
16863;DHT22;52193;48.216;-1.698;2022-11-20T08:01:44;13.50;99.90
16863;DHT22;52193;48.216;-1.698;2022-11-20T08:04:11;13.50;99.90
16863;DHT22;52193;48.216;-1.698;2022-11-20T08:06:39;13.40;99.90
16863;DHT22;52193;48.216;-1.698;2022-11-20T08:09:06;13.40;99.90
16863;DHT22;52193;48.216;-1.698;2022-11-20T08:11:33;13.40;99.90
16863;DHT22;52193;48.216;-1.698;2022-11-20T08:14:17;13.40;99.90
16863;DHT22;52193;48.216;-1.698;2022-11-20T08:16:46;13.40;99.90
16863;DHT22;52193;48.216;-1.698;2022-11-20T08:19:15;13.30;99.90
16863;DHT22;52193;48.216;-1.698;2022-11-20T08:21:44;13.30;99.90
16863;DHT22;52193;48.216;-1.698;2022-11-20T08:24:11;13.30;99.90
16863;DHT22;52193;48.216;-1.698;2022-11-20T08:26:39;13.30;99.90
16863;DHT22;52193;48.216;-1.698;2022-11-20T08:29:06;13.20;99.90
16863;DHT22;52193;48.216;-1.698;2022-11-20T08:31:33;13.20;99.90
16863;DHT22;52193;48.216;-1.698;2022-11-20T08:34:00;13.20;99.90
16863;DHT22;52193;48.216;-1.698;2022-11-20T08:36:27;13.20;99.90
16863;DHT22;52193;48.216;-1.698;2022-11-20T08:38:55;13.20;99.90
16863;DHT22;52193;48.216;-1.698;2022-11-20T08:41:22;13.10;99.90
16863;DHT22;52193;48.216;-1.698;2022-11-20T08:43:55;13.10;99.90
16863;DHT22;52193;48.216;-1.698;2022-11-20T08:46:23;13.10;99.90
16863;DHT22;52193;48.216;-1.698;2022-11-20T08:48:50;13.10;99.90
16863;DHT22;52193;48.216;-1.698;2022-11-20T08:51:17;13.20;99.90
16863;DHT22;52193;48.216;-1.698;2022-11-20T08:53:44;13.10;99.90
16863;DHT22;52193;48.216;-1.698;2022-11-20T08:56:13;13.00;99.90
16863;DHT22;52193;48.216;-1.698;2022-11-20T08:58:40;13.00;99.90
16863;DHT22;52193;48.216;-1.698;2022-11-20T09:01:07;13.00;99.90
16863;DHT22;52193;48.216;-1.698;2022-11-20T09:03:34;13.00;99.90
16863;DHT22;52193;48.216;-1.698;2022-11-20T09:06:02;13.00;99.90
16863;DHT22;52193;48.216;-1.698;2022-11-20T09:08:30;13.00;99.90
16863;DHT22;52193;48.216;-1.698;2022-11-20T09:10:58;13.10;99.90
16863;DHT22;52193;48.216;-1.698;2022-11-20T09:13:27;13.10;99.90
16863;DHT22;52193;48.216;-1.698;2022-11-20T09:15:55;13.10;99.90
16863;DHT22;52193;48.216;-1.698;2022-11-20T09:18:22;13.10;99.90
16863;DHT22;52193;48.216;-1.698;2022-11-20T09:20:49;13.20;99.90
16863;DHT22;52193;48.216;-1.698;2022-11-20T09:23:17;13.20;99.90
16863;DHT22;52193;48.216;-1.698;2022-11-20T09:25:44;13.30;99.90
16863;DHT22;52193;48.216;-1.698;2022-11-20T09:28:11;13.30;99.90
16863;DHT22;52193;48.216;-1.698;2022-11-20T09:30:39;13.30;99.90
16863;DHT22;52193;48.216;-1.698;2022-11-20T09:33:06;13.30;99.90
16863;DHT22;52193;48.216;-1.698;2022-11-20T09:35:33;13.40;99.90
16863;DHT22;52193;48.216;-1.698;2022-11-20T09:38:05;13.50;99.90
16863;DHT22;52193;48.216;-1.698;2022-11-20T09:40:32;13.50;99.90
16863;DHT22;52193;48.216;-1.698;2022-11-20T09:43:05;13.50;99.90
16863;DHT22;52193;48.216;-1.698;2022-11-20T09:45:53;13.60;99.90
16863;DHT22;52193;48.216;-1.698;2022-11-20T09:48:31;13.60;99.90
16863;DHT22;52193;48.216;-1.698;2022-11-20T09:51:08;13.60;99.90
16863;DHT22;52193;48.216;-1.698;2022-11-20T09:53:50;13.70;99.90
16863;DHT22;52193;48.216;-1.698;2022-11-20T09:56:19;13.80;99.90
16863;DHT22;52193;48.216;-1.698;2022-11-20T09:58:50;13.70;99.90
16863;DHT22;52193;48.216;-1.698;2022-11-20T10:01:19;13.80;99.90
16863;DHT22;52193;48.216;-1.698;2022-11-20T10:03:55;13.80;99.90
16863;DHT22;52193;48.216;-1.698;2022-11-20T10:06:29;13.80;99.90
16863;DHT22;52193;48.216;-1.698;2022-11-20T10:09:04;13.80;99.90
16863;DHT22;52193;48.216;-1.698;2022-11-20T10:11:41;13.90;99.90
16863;DHT22;52193;48.216;-1.698;2022-11-20T10:14:18;13.90;99.90
16863;DHT22;52193;48.216;-1.698;2022-11-20T10:16:58;14.00;99.90
16863;DHT22;52193;48.216;-1.698;2022-11-20T10:19:40;14.00;99.90
16863;DHT22;52193;48.216;-1.698;2022-11-20T10:22:20;14.10;99.90
16863;DHT22;52193;48.216;-1.698;2022-11-20T10:24:53;14.00;99.90
16863;DHT22;52193;48.216;-1.698;2022-11-20T10:27:43;14.10;99.90
16863;DHT22;52193;48.216;-1.698;2022-11-20T10:30:18;14.10;99.90
16863;DHT22;52193;48.216;-1.698;2022-11-20T10:32:49;14.20;99.90
16863;DHT22;52193;48.216;-1.698;2022-11-20T10:35:21;14.30;99.90
16863;DHT22;52193;48.216;-1.698;2022-11-20T10:37:53;14.40;99.90
16863;DHT22;52193;48.216;-1.698;2022-11-20T10:40:28;14.50;99.90
16863;DHT22;52193;48.216;-1.698;2022-11-20T10:43:01;14.50;99.90
16863;DHT22;52193;48.216;-1.698;2022-11-20T10:45:45;14.60;99.90
16863;DHT22;52193;48.216;-1.698;2022-11-20T10:48:21;14.50;99.90
16863;DHT22;52193;48.216;-1.698;2022-11-20T10:51:08;14.40;99.90
16863;DHT22;52193;48.216;-1.698;2022-11-20T10:53:46;14.40;99.90
16863;DHT22;52193;48.216;-1.698;2022-11-20T10:56:19;14.40;99.90
16863;DHT22;52193;48.216;-1.698;2022-11-20T10:59:00;14.40;99.90
16863;DHT22;52193;48.216;-1.698;2022-11-20T11:01:29;14.30;99.90
16863;DHT22;52193;48.216;-1.698;2022-11-20T11:03:58;14.40;99.90
16863;DHT22;52193;48.216;-1.698;2022-11-20T11:06:29;14.30;99.90
16863;DHT22;52193;48.216;-1.698;2022-11-20T11:09:02;14.40;99.90
16863;DHT22;52193;48.216;-1.698;2022-11-20T11:11:33;14.40;99.90
16863;DHT22;52193;48.216;-1.698;2022-11-20T11:14:06;14.40;99.90
16863;DHT22;52193;48.216;-1.698;2022-11-20T11:16:33;14.40;99.90
16863;DHT22;52193;48.216;-1.698;2022-11-20T11:19:06;14.50;99.90
16863;DHT22;52193;48.216;-1.698;2022-11-20T11:21:34;14.50;99.90
16863;DHT22;52193;48.216;-1.698;2022-11-20T11:24:18;14.50;99.90
16863;DHT22;52193;48.216;-1.698;2022-11-20T11:26:55;14.50;99.90
16863;DHT22;52193;48.216;-1.698;2022-11-20T11:29:23;14.50;99.90
16863;DHT22;52193;48.216;-1.698;2022-11-20T11:32:03;14.60;99.90
16863;DHT22;52193;48.216;-1.698;2022-11-20T11:34:32;14.60;99.90
16863;DHT22;52193;48.216;-1.698;2022-11-20T11:37:00;14.60;99.90
16863;DHT22;52193;48.216;-1.698;2022-11-20T11:39:30;14.70;99.90
16863;DHT22;52193;48.216;-1.698;2022-11-20T11:41:58;14.60;99.90
16863;DHT22;52193;48.216;-1.698;2022-11-20T11:44:29;14.70;99.90
16863;DHT22;52193;48.216;-1.698;2022-11-20T11:47:22;14.80;99.90
16863;DHT22;52193;48.216;-1.698;2022-11-20T11:50:01;14.80;99.90
16863;DHT22;52193;48.216;-1.698;2022-11-20T11:52:29;14.90;99.90
16863;DHT22;52193;48.216;-1.698;2022-11-20T11:54:59;14.90;99.90
16863;DHT22;52193;48.216;-1.698;2022-11-20T11:57:33;14.90;99.90
16863;DHT22;52193;48.216;-1.698;2022-11-20T12:00:08;15.00;99.90
16863;DHT22;52193;48.216;-1.698;2022-11-20T12:02:38;15.10;99.90
16863;DHT22;52193;48.216;-1.698;2022-11-20T12:05:16;15.10;99.90
16863;DHT22;52193;48.216;-1.698;2022-11-20T12:07:46;15.10;99.90
16863;DHT22;52193;48.216;-1.698;2022-11-20T12:10:21;15.20;99.90
16863;DHT22;52193;48.216;-1.698;2022-11-20T12:12:52;15.30;99.90
16863;DHT22;52193;48.216;-1.698;2022-11-20T12:15:30;15.40;99.90
16863;DHT22;52193;48.216;-1.698;2022-11-20T12:17:58;15.40;99.90
16863;DHT22;52193;48.216;-1.698;2022-11-20T12:20:28;15.40;99.90
16863;DHT22;52193;48.216;-1.698;2022-11-20T12:23:04;15.30;99.90
16863;DHT22;52193;48.216;-1.698;2022-11-20T12:25:35;15.30;99.90
16863;DHT22;52193;48.216;-1.698;2022-11-20T12:28:31;15.20;99.90
16863;DHT22;52193;48.216;-1.698;2022-11-20T12:31:18;15.30;99.90
16863;DHT22;52193;48.216;-1.698;2022-11-20T12:34:04;15.40;99.90
16863;DHT22;52193;48.216;-1.698;2022-11-20T12:36:43;15.50;99.90
16863;DHT22;52193;48.216;-1.698;2022-11-20T12:39:33;15.50;99.90
16863;DHT22;52193;48.216;-1.698;2022-11-20T12:42:23;15.60;99.90
16863;DHT22;52193;48.216;-1.698;2022-11-20T12:48:31;15.60;99.90
16863;DHT22;52193;48.216;-1.698;2022-11-20T12:54:45;15.70;99.90
16863;DHT22;52193;48.216;-1.698;2022-11-20T12:57:18;15.80;99.90
16863;DHT22;52193;48.216;-1.698;2022-11-20T13:00:06;15.80;99.90
16863;DHT22;52193;48.216;-1.698;2022-11-20T13:02:38;15.80;99.90
16863;DHT22;52193;48.216;-1.698;2022-11-20T13:05:31;15.80;99.90
16863;DHT22;52193;48.216;-1.698;2022-11-20T13:08:02;15.90;99.90
16863;DHT22;52193;48.216;-1.698;2022-11-20T13:10:36;16.00;99.90
16863;DHT22;52193;48.216;-1.698;2022-11-20T13:13:22;16.00;99.90
16863;DHT22;52193;48.216;-1.698;2022-11-20T13:15:54;16.10;99.90
16863;DHT22;52193;48.216;-1.698;2022-11-20T13:18:23;16.10;99.90
16863;DHT22;52193;48.216;-1.698;2022-11-20T13:20:50;16.20;99.90
16863;DHT22;52193;48.216;-1.698;2022-11-20T13:23:24;16.30;99.90
16863;DHT22;52193;48.216;-1.698;2022-11-20T13:26:03;16.30;99.90
16863;DHT22;52193;48.216;-1.698;2022-11-20T13:28:31;16.40;99.90
16863;DHT22;52193;48.216;-1.698;2022-11-20T13:30:58;16.40;99.90
16863;DHT22;52193;48.216;-1.698;2022-11-20T13:33:30;16.40;99.90
16863;DHT22;52193;48.216;-1.698;2022-11-20T13:36:00;16.40;99.90
16863;DHT22;52193;48.216;-1.698;2022-11-20T13:38:28;16.20;99.90
16863;DHT22;52193;48.216;-1.698;2022-11-20T13:40:57;16.10;99.90
16863;DHT22;52193;48.216;-1.698;2022-11-20T13:43:34;16.00;99.90
16863;DHT22;52193;48.216;-1.698;2022-11-20T13:46:04;16.10;99.90
16863;DHT22;52193;48.216;-1.698;2022-11-20T13:48:33;16.00;99.90
16863;DHT22;52193;48.216;-1.698;2022-11-20T13:51:15;16.00;99.90
16863;DHT22;52193;48.216;-1.698;2022-11-20T13:54:16;16.00;99.90
16863;DHT22;52193;48.216;-1.698;2022-11-20T13:56:59;15.90;99.90
16863;DHT22;52193;48.216;-1.698;2022-11-20T13:59:40;15.70;99.90
16863;DHT22;52193;48.216;-1.698;2022-11-20T14:02:11;15.80;99.90
16863;DHT22;52193;48.216;-1.698;2022-11-20T14:04:44;15.80;99.90
16863;DHT22;52193;48.216;-1.698;2022-11-20T14:07:13;15.80;99.90
16863;DHT22;52193;48.216;-1.698;2022-11-20T14:09:49;15.90;99.90
16863;DHT22;52193;48.216;-1.698;2022-11-20T14:12:19;15.90;99.90
16863;DHT22;52193;48.216;-1.698;2022-11-20T14:14:51;16.00;99.90
16863;DHT22;52193;48.216;-1.698;2022-11-20T14:17:20;16.00;99.90
16863;DHT22;52193;48.216;-1.698;2022-11-20T14:19:49;16.00;99.90
16863;DHT22;52193;48.216;-1.698;2022-11-20T14:22:19;16.10;99.90
16863;DHT22;52193;48.216;-1.698;2022-11-20T14:24:46;16.10;99.90
16863;DHT22;52193;48.216;-1.698;2022-11-20T14:27:15;16.10;99.90
16863;DHT22;52193;48.216;-1.698;2022-11-20T14:29:46;16.10;99.90
16863;DHT22;52193;48.216;-1.698;2022-11-20T14:32:16;16.00;99.90
16863;DHT22;52193;48.216;-1.698;2022-11-20T14:34:45;15.90;99.90
16863;DHT22;52193;48.216;-1.698;2022-11-20T14:37:20;15.80;99.90
16863;DHT22;52193;48.216;-1.698;2022-11-20T14:39:50;15.80;99.90
16863;DHT22;52193;48.216;-1.698;2022-11-20T14:42:19;15.80;99.90
16863;DHT22;52193;48.216;-1.698;2022-11-20T14:44:48;15.80;99.90
16863;DHT22;52193;48.216;-1.698;2022-11-20T14:47:19;15.80;99.90
16863;DHT22;52193;48.216;-1.698;2022-11-20T14:49:48;15.80;99.90
16863;DHT22;52193;48.216;-1.698;2022-11-20T14:52:17;15.90;99.90
16863;DHT22;52193;48.216;-1.698;2022-11-20T14:54:45;15.90;99.90
16863;DHT22;52193;48.216;-1.698;2022-11-20T14:57:26;16.00;99.90
16863;DHT22;52193;48.216;-1.698;2022-11-20T15:00:19;16.00;99.90
16863;DHT22;52193;48.216;-1.698;2022-11-20T15:02:48;16.00;99.90
16863;DHT22;52193;48.216;-1.698;2022-11-20T15:05:16;16.10;99.90
16863;DHT22;52193;48.216;-1.698;2022-11-20T15:07:45;16.10;99.90
16863;DHT22;52193;48.216;-1.698;2022-11-20T15:10:21;16.10;99.90
16863;DHT22;52193;48.216;-1.698;2022-11-20T15:12:50;16.10;99.90
16863;DHT22;52193;48.216;-1.698;2022-11-20T15:15:21;16.20;99.90
16863;DHT22;52193;48.216;-1.698;2022-11-20T15:17:50;16.20;99.90
16863;DHT22;52193;48.216;-1.698;2022-11-20T15:20:17;16.10;99.90
16863;DHT22;52193;48.216;-1.698;2022-11-20T15:22:44;16.00;99.90
16863;DHT22;52193;48.216;-1.698;2022-11-20T15:25:15;16.00;99.90
16863;DHT22;52193;48.216;-1.698;2022-11-20T15:27:43;16.00;99.90
16863;DHT22;52193;48.216;-1.698;2022-11-20T15:30:15;16.00;99.90
16863;DHT22;52193;48.216;-1.698;2022-11-20T15:32:45;16.00;99.90
16863;DHT22;52193;48.216;-1.698;2022-11-20T15:35:13;16.00;99.90
16863;DHT22;52193;48.216;-1.698;2022-11-20T15:37:40;16.00;99.90
16863;DHT22;52193;48.216;-1.698;2022-11-20T15:40:08;16.00;99.90
16863;DHT22;52193;48.216;-1.698;2022-11-20T15:42:35;16.00;99.90
16863;DHT22;52193;48.216;-1.698;2022-11-20T15:45:02;15.90;99.90